createdAt,value
2019-04-28T00:02:22.478Z,77.12
2019-04-28T00:04:54.262Z,76.29
2019-04-28T00:07:32.219Z,76.13
2019-04-28T00:10:23.030Z,76.13
2019-04-28T00:12:57.118Z,76.54
2019-04-28T00:18:51.125Z,76.74
2019-04-28T00:21:33.816Z,77.36
2019-04-28T00:24:32.772Z,76.33
2019-04-28T00:27:27.384Z,76.67
2019-04-28T00:29:59.136Z,76.57
2019-04-28T00:32:54.062Z,77.19
2019-04-28T00:36:02.480Z,76.37
2019-04-28T00:38:56.130Z,76.70
2019-04-28T00:41:26.466Z,77.58
2019-04-28T00:43:56.637Z,77.79
2019-04-28T00:46:31.884Z,77.18
2019-04-28T00:49:02.281Z,77.25
2019-04-28T00:51:32.375Z,77.37
2019-04-28T00:54:02.626Z,77.50
2019-04-28T00:56:32.734Z,77.38
2019-04-28T00:59:02.994Z,77.20
2019-04-28T01:01:51.371Z,77.51
2019-04-28T01:04:22.041Z,77.08
2019-04-28T01:06:53.318Z,76.88
2019-04-28T01:09:31.591Z,77.57
2019-04-28T01:12:03.422Z,77.13
2019-04-28T01:14:36.283Z,77.40
2019-04-28T01:17:19.826Z,77.55
2019-04-28T01:19:51.988Z,77.41
2019-04-28T01:22:22.104Z,77.05
2019-04-28T01:24:53.858Z,76.96
2019-04-28T01:27:50.496Z,76.87
2019-04-28T01:30:45.564Z,76.96
2019-04-28T01:36:14.877Z,77.17
2019-04-28T01:38:45.038Z,77.28
2019-04-28T01:41:15.219Z,77.54
2019-04-28T01:43:45.340Z,77.52
2019-04-28T01:46:15.507Z,77.99
2019-04-28T01:48:45.697Z,77.32
2019-04-28T01:51:15.893Z,77.17
2019-04-28T01:53:46.021Z,77.33
2019-04-28T01:56:16.183Z,76.89
2019-04-28T01:58:46.378Z,76.94
2019-04-28T02:01:16.535Z,76.93
2019-04-28T02:03:46.705Z,76.62
2019-04-28T02:06:16.873Z,76.95
2019-04-28T02:08:46.951Z,76.71
2019-04-28T02:11:19.809Z,76.56
2019-04-28T02:13:50.003Z,76.57
2019-04-28T02:16:20.199Z,75.94
2019-04-28T02:18:50.321Z,76.48
2019-04-28T02:21:34.539Z,76.98
2019-04-28T02:24:22.801Z,76.08
2019-04-28T02:26:53.131Z,76.66
2019-04-28T02:29:23.231Z,77.04
2019-04-28T02:31:53.624Z,76.19
2019-04-28T02:34:23.771Z,77.04
2019-04-28T02:36:54.186Z,76.37
2019-04-28T02:39:24.376Z,77.32
2019-04-28T02:41:54.544Z,76.40
2019-04-28T02:44:25.647Z,76.47
2019-04-28T02:46:55.789Z,76.14
2019-04-28T02:49:31.327Z,77.75
2019-04-28T02:52:10.730Z,76.47
2019-04-28T02:54:41.084Z,76.83
2019-04-28T02:57:11.300Z,75.93
2019-04-28T02:59:44.629Z,76.84
2019-04-28T03:02:13.320Z,76.36
2019-04-28T03:04:43.452Z,76.28
2019-04-28T03:07:14.601Z,77.94
2019-04-28T03:09:45.329Z,77.42
2019-04-28T03:12:15.481Z,77.80
2019-04-28T03:14:45.683Z,77.98
2019-04-28T03:17:15.969Z,76.58
2019-04-28T03:19:46.317Z,77.54
2019-04-28T03:22:16.681Z,77.09
2019-04-28T03:24:51.076Z,77.66
2019-04-28T03:27:45.584Z,78.15
2019-04-28T03:30:34.162Z,78.56
2019-04-28T03:33:11.629Z,77.37
2019-04-28T03:35:37.807Z,77.59
2019-04-28T03:38:07.948Z,77.77
2019-04-28T03:40:38.065Z,76.80
2019-04-28T03:43:10.497Z,77.15
2019-04-28T03:45:46.459Z,76.95
2019-04-28T03:48:16.611Z,77.72
2019-04-28T03:50:46.816Z,77.47
2019-04-28T03:53:16.957Z,77.44
2019-04-28T03:55:47.069Z,77.21
2019-04-28T03:58:17.227Z,76.89
2019-04-28T04:00:47.411Z,77.39
2019-04-28T04:03:17.551Z,77.19
2019-04-28T04:05:50.759Z,78.31
2019-04-28T04:08:22.271Z,78.71
2019-04-28T04:11:11.039Z,77.02
2019-04-28T04:14:04.007Z,77.60
2019-04-28T04:16:45.901Z,78.94
2019-04-28T04:19:16.241Z,78.01
2019-04-28T04:21:46.434Z,78.39
2019-04-28T04:24:16.641Z,77.23
2019-04-28T04:26:46.923Z,77.46
2019-04-28T04:29:17.213Z,78.42
2019-04-28T04:31:47.332Z,77.73
2019-04-28T04:34:20.069Z,77.54
2019-04-28T04:36:50.936Z,76.64
2019-04-28T04:39:21.237Z,78.06
2019-04-28T04:41:51.800Z,78.37
2019-04-28T04:44:22.033Z,79.09
2019-04-28T04:46:52.393Z,77.59
2019-04-28T04:49:25.406Z,77.47
2019-04-28T04:51:55.517Z,78.14
2019-04-28T04:54:25.815Z,77.78
2019-04-28T04:56:56.066Z,77.60
2019-04-28T04:59:26.614Z,78.74
2019-04-28T05:02:33.114Z,77.76
2019-04-28T05:05:14.270Z,77.70
2019-04-28T05:07:44.402Z,78.14
2019-04-28T05:10:16.734Z,76.75
2019-04-28T05:12:47.442Z,77.10
2019-04-28T05:15:17.550Z,77.05
2019-04-28T05:17:47.680Z,76.33
2019-04-28T05:20:17.824Z,77.55
2019-04-28T05:23:00.984Z,77.96
2019-04-28T05:25:36.717Z,78.50
2019-04-28T05:28:06.832Z,77.78
2019-04-28T05:30:39.783Z,77.26
2019-04-28T05:33:10.604Z,76.89
2019-04-28T05:35:40.765Z,77.12
2019-04-28T05:38:10.907Z,76.27
2019-04-28T05:40:41.134Z,75.94
2019-04-28T05:43:42.626Z,76.38
2019-04-28T05:46:12.799Z,75.85
2019-04-28T05:48:56.156Z,77.37
2019-04-28T05:51:29.858Z,76.17
2019-04-28T05:54:31.225Z,76.19
2019-04-28T05:57:13.465Z,75.52
2019-04-28T06:00:03.680Z,75.61
2019-04-28T06:02:39.539Z,76.27
2019-04-28T06:05:10.149Z,74.95
2019-04-28T06:07:59.603Z,73.84
2019-04-28T06:10:30.006Z,74.65
2019-04-28T06:13:00.111Z,74.74
2019-04-28T06:15:30.458Z,73.65
2019-04-28T06:18:00.860Z,73.71
2019-04-28T06:20:31.745Z,72.99
2019-04-28T06:23:04.270Z,73.29
2019-04-28T06:25:34.427Z,73.44
2019-04-28T06:28:04.869Z,71.85
2019-04-28T06:30:36.147Z,72.38
2019-04-28T06:33:08.111Z,71.39
2019-04-28T06:35:38.446Z,72.35
2019-04-28T06:38:08.720Z,70.89
2019-04-28T06:40:39.143Z,69.88
2019-04-28T06:43:09.473Z,69.12
2019-04-28T06:45:39.643Z,68.12
2019-04-28T06:48:09.806Z,70.80
2019-04-28T06:50:40.031Z,67.31
2019-04-28T06:53:10.210Z,65.75
2019-04-28T06:55:40.859Z,67.38
2019-04-28T06:58:11.161Z,67.60
2019-04-28T07:00:41.335Z,68.33
2019-04-28T07:03:22.692Z,67.85
2019-04-28T07:05:43.467Z,67.16
2019-04-28T07:08:13.985Z,67.65
2019-04-28T07:10:44.371Z,67.30
2019-04-28T07:13:14.575Z,67.45
2019-04-28T07:15:45.230Z,67.18
2019-04-28T07:18:18.796Z,69.04
2019-04-28T07:21:06.470Z,67.71
2019-04-28T07:23:37.698Z,67.44
2019-04-28T07:26:07.902Z,67.07
2019-04-28T07:28:38.061Z,66.34
2019-04-28T07:31:08.247Z,66.46
2019-04-28T07:33:38.402Z,64.95
2019-04-28T07:36:08.594Z,66.67
2019-04-28T07:38:38.923Z,65.50
2019-04-28T07:41:09.056Z,66.16
2019-04-28T07:43:39.205Z,65.17
2019-04-28T07:46:10.247Z,64.67
2019-04-28T07:48:40.410Z,65.68
2019-04-28T07:51:10.556Z,64.78
2019-04-28T07:53:52.452Z,63.78
2019-04-28T07:56:22.601Z,63.44
2019-04-28T07:58:52.785Z,64.01
2019-04-28T08:01:22.947Z,64.62
2019-04-28T08:03:53.209Z,66.74
2019-04-28T08:06:23.430Z,67.01
2019-04-28T08:08:53.530Z,63.50
2019-04-28T08:11:23.735Z,64.09
2019-04-28T08:13:53.870Z,62.89
2019-04-28T08:16:24.016Z,61.57
2019-04-28T08:18:54.168Z,61.08
2019-04-28T08:21:24.335Z,59.51
2019-04-28T08:23:54.417Z,59.05
2019-04-28T08:26:24.565Z,57.51
2019-04-28T08:28:54.711Z,55.67
2019-04-28T08:31:28.359Z,53.17
2019-04-28T08:34:03.939Z,53.91
2019-04-28T08:36:34.066Z,52.46
2019-04-28T08:39:06.424Z,55.15
2019-04-28T08:41:37.009Z,56.91
2019-04-28T08:44:07.200Z,55.84
2019-04-28T08:46:37.425Z,55.66
2019-04-28T08:49:07.571Z,55.46
2019-04-28T08:51:37.776Z,53.96
2019-04-28T08:54:07.915Z,55.29
2019-04-28T08:56:38.046Z,54.58
2019-04-28T08:59:08.227Z,53.77
2019-04-28T09:01:38.361Z,53.74
2019-04-28T09:04:15.060Z,54.33
2019-04-28T09:06:40.447Z,55.01
2019-04-28T09:09:18.015Z,55.68
2019-04-28T09:11:50.969Z,55.88
2019-04-28T09:14:21.226Z,56.12
2019-04-28T09:16:51.344Z,54.43
2019-04-28T09:19:21.642Z,53.96
2019-04-28T09:21:51.790Z,52.08
2019-04-28T09:24:21.980Z,51.64
2019-04-28T09:26:52.102Z,49.57
2019-04-28T09:29:22.328Z,47.40
2019-04-28T09:31:52.470Z,45.76
2019-04-28T09:34:28.555Z,48.20
2019-04-28T09:36:54.538Z,47.83
2019-04-28T09:39:44.834Z,47.98
2019-04-28T09:42:32.518Z,50.97
2019-04-28T09:45:03.602Z,49.92
2019-04-28T09:47:34.415Z,52.84
2019-04-28T09:50:04.646Z,54.15
2019-04-28T09:52:34.784Z,53.35
2019-04-28T09:55:05.074Z,52.31
2019-04-28T09:57:35.241Z,52.44
2019-04-28T10:00:06.241Z,51.17
2019-04-28T10:02:36.856Z,51.66
2019-04-28T10:05:07.220Z,50.93
2019-04-28T10:07:37.368Z,49.51
2019-04-28T10:10:07.736Z,50.85
2019-04-28T10:12:38.061Z,49.58
2019-04-28T10:15:09.155Z,50.01
2019-04-28T10:17:39.368Z,49.68
2019-04-28T10:20:10.734Z,51.84
2019-04-28T10:22:40.821Z,53.50
2019-04-28T10:25:12.230Z,56.97
2019-04-28T10:27:42.590Z,58.53
2019-04-28T10:30:13.602Z,61.48
2019-04-28T10:32:43.755Z,63.61
2019-04-28T10:35:15.095Z,67.28
2019-04-28T10:37:45.767Z,67.88
2019-04-28T10:40:56.036Z,68.32
2019-04-28T10:43:26.214Z,69.21
2019-04-28T10:45:56.400Z,70.60
2019-04-28T10:48:26.967Z,69.69
2019-04-28T10:50:57.143Z,70.21
2019-04-28T10:53:27.270Z,68.84
2019-04-28T10:55:57.510Z,68.99
2019-04-28T10:58:27.701Z,69.55
2019-04-28T11:01:02.353Z,69.51
2019-04-28T11:03:32.643Z,71.41
2019-04-28T11:06:02.818Z,71.91
2019-04-28T11:08:59.174Z,71.20
2019-04-28T11:11:29.426Z,68.71
2019-04-28T11:13:59.544Z,67.35
2019-04-28T11:16:36.082Z,66.66
2019-04-28T11:19:07.823Z,67.66
2019-04-28T11:21:38.598Z,66.02
2019-04-28T11:24:08.899Z,66.35
2019-04-28T11:26:39.036Z,65.78
2019-04-28T11:29:10.469Z,62.65
2019-04-28T11:31:40.586Z,62.33
2019-04-28T11:34:25.297Z,61.96
2019-04-28T11:36:55.465Z,58.81
2019-04-28T11:39:37.827Z,59.96
2019-04-28T11:42:08.016Z,60.73
2019-04-28T11:44:38.207Z,57.50
2019-04-28T11:47:10.731Z,58.48
2019-04-28T11:49:40.843Z,62.31
2019-04-28T11:52:11.378Z,60.87
2019-04-28T11:54:41.549Z,58.22
2019-04-28T11:57:11.718Z,57.02
2019-04-28T11:59:41.911Z,57.07
2019-04-28T12:02:12.161Z,59.40
2019-04-28T12:04:46.689Z,58.32
2019-04-28T12:07:14.147Z,65.16
2019-04-28T12:10:04.316Z,59.33
2019-04-28T12:13:02.107Z,59.29
2019-04-28T12:15:44.125Z,61.32
2019-04-28T12:18:33.207Z,60.75
2019-04-28T12:21:06.523Z,60.27
2019-04-28T12:23:36.753Z,55.54
2019-04-28T12:26:06.980Z,53.75
2019-04-28T12:28:37.105Z,56.16
2019-04-28T12:31:07.535Z,53.18
2019-04-28T12:33:39.295Z,55.64
2019-04-28T12:36:10.009Z,50.79
2019-04-28T12:38:40.125Z,48.84
2019-04-28T12:41:12.646Z,51.29
2019-04-28T12:43:42.769Z,51.58
2019-04-28T12:49:15.642Z,52.51
2019-04-28T12:51:47.494Z,50.11
2019-04-28T12:54:19.687Z,51.19
2019-04-28T12:59:40.040Z,48.65
2019-04-28T13:02:26.155Z,49.55
2019-04-28T13:05:00.767Z,49.29
2019-04-28T13:10:29.087Z,50.52
2019-04-28T13:13:01.976Z,46.96
2019-04-28T13:15:59.409Z,45.57
2019-04-28T13:18:49.387Z,45.97
2019-04-28T13:21:21.357Z,47.26
2019-04-28T13:26:52.306Z,46.15
2019-04-28T13:29:40.716Z,48.04
2019-04-28T13:32:14.238Z,45.01
2019-04-28T13:34:48.647Z,44.50
2019-04-28T13:37:42.856Z,43.76
2019-04-28T13:40:18.738Z,44.75
2019-04-28T13:42:51.274Z,44.04
2019-04-28T13:54:05.273Z,45.14
2019-04-28T13:56:35.496Z,44.81
2019-04-28T13:59:14.088Z,44.92
2019-04-28T14:01:52.374Z,44.31
2019-04-28T14:04:51.660Z,44.08
2019-04-28T14:07:22.056Z,42.38
2019-04-28T14:09:52.347Z,44.91
2019-04-28T14:12:24.880Z,39.28
2019-04-28T14:14:55.145Z,40.37
2019-04-28T14:17:25.338Z,39.57
2019-04-28T14:19:55.484Z,37.89
2019-04-28T14:22:27.325Z,37.51
2019-04-28T14:24:59.845Z,35.87
2019-04-28T14:27:34.814Z,37.39
2019-04-28T14:30:05.273Z,37.07
2019-04-28T14:32:35.372Z,37.02
2019-04-28T14:35:07.365Z,38.94
2019-04-28T14:37:37.554Z,38.02
2019-04-28T14:40:08.511Z,41.66
2019-04-28T14:42:40.742Z,41.14
2019-04-28T14:45:11.305Z,45.25
2019-04-28T14:47:41.382Z,46.87
2019-04-28T14:50:12.495Z,46.63
2019-04-28T14:52:45.663Z,46.97
2019-04-28T14:55:16.051Z,48.02
2019-04-28T14:57:50.535Z,50.28
2019-04-28T15:00:25.514Z,52.11
2019-04-28T15:02:59.994Z,53.33
2019-04-28T15:05:39.285Z,52.98
2019-04-28T15:08:27.341Z,52.97
2019-04-28T15:11:08.061Z,52.57
2019-04-28T15:13:39.988Z,52.39
2019-04-28T15:16:11.128Z,51.27
2019-04-28T15:18:43.934Z,49.92
2019-04-28T15:21:14.970Z,49.53
2019-04-28T15:23:45.613Z,49.07
2019-04-28T15:26:15.916Z,50.46
2019-04-28T15:28:49.150Z,50.64
2019-04-28T15:31:19.337Z,50.08
2019-04-28T15:33:49.658Z,50.12
2019-04-28T15:36:19.936Z,50.57
2019-04-28T15:38:57.651Z,51.07
2019-04-28T15:41:34.435Z,51.36
2019-04-28T15:44:06.210Z,50.89
2019-04-28T15:46:37.565Z,50.61
2019-04-28T15:49:07.871Z,51.08
2019-04-28T15:51:39.619Z,51.08
2019-04-28T15:54:09.841Z,50.91
2019-04-28T15:56:46.032Z,50.43
2019-04-28T15:59:16.399Z,50.63
2019-04-28T16:01:46.624Z,51.63
2019-04-28T16:04:18.450Z,51.58
2019-04-28T16:06:49.553Z,51.51
2019-04-28T16:09:19.948Z,50.71
2019-04-28T16:11:50.967Z,50.25
2019-04-28T16:14:21.243Z,49.32
2019-04-28T16:16:52.081Z,49.18
2019-04-28T16:19:23.102Z,49.79
2019-04-28T16:21:53.567Z,49.93
2019-04-28T16:24:24.149Z,49.48
2019-04-28T16:26:54.436Z,49.89
2019-04-28T16:29:30.497Z,48.19
2019-04-28T16:32:04.943Z,45.33
2019-04-28T16:34:35.278Z,42.21
2019-04-28T16:37:13.110Z,40.38
2019-04-28T16:39:43.367Z,39.29
2019-04-28T16:42:33.022Z,40.24
2019-04-28T16:45:28.597Z,38.65
2019-04-28T16:48:00.877Z,38.02
2019-04-28T16:50:32.659Z,36.38
2019-04-28T16:53:04.537Z,35.00
2019-04-28T16:55:56.595Z,36.81
2019-04-28T16:58:36.381Z,38.77
2019-04-28T17:01:21.737Z,37.24
2019-04-28T17:03:52.125Z,37.60
2019-04-28T17:06:22.367Z,35.04
2019-04-28T17:08:54.979Z,35.50
2019-04-28T17:11:25.610Z,34.87
2019-04-28T17:13:55.881Z,35.51
2019-04-28T17:16:25.998Z,35.10
2019-04-28T17:18:56.378Z,36.26
2019-04-28T17:21:26.749Z,36.75
2019-04-28T17:24:01.405Z,37.25
2019-04-28T17:26:33.670Z,37.67
2019-04-28T17:29:05.293Z,36.62
2019-04-28T17:31:37.335Z,36.14
2019-04-28T17:34:08.102Z,38.61
2019-04-28T17:36:38.452Z,41.94
2019-04-28T17:39:19.004Z,44.78
2019-04-28T17:41:50.886Z,46.07
2019-04-28T17:44:21.301Z,47.37
2019-04-28T17:46:53.074Z,48.65
2019-04-28T17:49:32.300Z,49.22
2019-04-28T17:52:02.460Z,49.86
2019-04-28T17:54:35.269Z,50.40
2019-04-28T17:57:07.268Z,51.48
2019-04-28T17:59:38.060Z,51.31
2019-04-28T18:02:33.783Z,52.07
2019-04-28T18:05:21.209Z,52.23
2019-04-28T18:08:00.494Z,52.59
2019-04-28T18:10:32.538Z,52.92
2019-04-28T18:13:02.844Z,52.93
2019-04-28T18:15:51.252Z,53.21
2019-04-28T18:18:43.925Z,52.68
2019-04-28T18:21:14.406Z,53.87
2019-04-28T18:23:44.767Z,54.01
2019-04-28T18:26:15.021Z,54.44
2019-04-28T18:28:45.382Z,54.75
2019-04-28T18:31:32.762Z,55.35
2019-04-28T18:34:14.614Z,55.38
2019-04-28T18:36:51.656Z,56.30
2019-04-28T18:39:47.074Z,56.75
2019-04-28T18:42:27.751Z,57.90
2019-04-28T18:44:57.948Z,59.33
2019-04-28T18:47:28.191Z,59.66
2019-04-28T18:50:02.181Z,59.38
2019-04-28T18:52:37.299Z,59.03
2019-04-28T18:55:07.730Z,60.07
2019-04-28T18:57:39.122Z,59.70
2019-04-28T19:00:11.116Z,60.42
2019-04-28T19:02:47.502Z,61.65
2019-04-28T19:05:20.556Z,62.51
2019-04-28T19:08:22.216Z,62.70
2019-04-28T19:11:31.809Z,63.87
2019-04-28T19:14:07.251Z,63.66
2019-04-28T19:16:55.334Z,63.86
2019-04-28T19:19:27.748Z,64.21
2019-04-28T19:22:03.100Z,64.30
2019-04-28T19:24:35.778Z,64.15
2019-04-28T19:27:05.736Z,64.52
2019-04-28T19:29:36.188Z,64.56
2019-04-28T19:32:08.710Z,64.96
2019-04-28T19:34:38.950Z,65.99
2019-04-28T19:37:09.150Z,66.35
2019-04-28T19:39:41.010Z,66.56
2019-04-28T19:42:11.769Z,67.21
2019-04-28T19:44:42.269Z,66.64
2019-04-28T19:47:14.420Z,66.62
2019-04-28T19:49:45.276Z,67.07
2019-04-28T19:52:15.649Z,67.28
2019-04-28T19:55:07.304Z,68.28
2019-04-28T19:57:54.992Z,68.81
2019-04-28T20:00:35.011Z,69.08
2019-04-28T20:03:05.934Z,68.81
2019-04-28T20:05:36.716Z,68.78
2019-04-28T20:08:11.436Z,68.48
2019-04-28T20:10:48.668Z,68.52
2019-04-28T20:13:25.089Z,69.52
2019-04-28T20:16:05.869Z,69.15
2019-04-28T20:18:38.370Z,69.15
2019-04-28T20:21:16.625Z,69.09
2019-04-28T20:23:50.809Z,69.58
2019-04-28T20:26:22.707Z,69.72
2019-04-28T20:28:53.836Z,69.72
2019-04-28T20:31:26.597Z,69.87
2019-04-28T20:34:07.019Z,70.21
2019-04-28T20:36:46.477Z,70.04
2019-04-28T20:39:24.778Z,70.14
2019-04-28T20:41:56.853Z,70.38
2019-04-28T20:44:27.053Z,70.96
2019-04-28T20:46:57.246Z,70.51
2019-04-28T20:49:27.466Z,70.42
2019-04-28T20:51:57.618Z,70.66
2019-04-28T20:54:27.785Z,70.86
2019-04-28T20:56:57.979Z,71.43
2019-04-28T20:59:28.083Z,71.06
2019-04-28T21:01:58.245Z,71.22
2019-04-28T21:04:30.759Z,71.18
2019-04-28T21:07:01.008Z,71.33
2019-04-28T21:09:31.165Z,71.14
2019-04-28T21:12:01.467Z,71.17
2019-04-28T21:14:31.640Z,71.81
2019-04-28T21:17:01.839Z,71.73
2019-04-28T21:19:31.972Z,71.78
2019-04-28T21:22:02.134Z,71.90
2019-04-28T21:24:32.363Z,71.86
2019-04-28T21:27:02.501Z,72.02
2019-04-28T21:29:32.830Z,71.89
2019-04-28T21:32:03.034Z,72.23
2019-04-28T21:34:33.176Z,72.17
2019-04-28T21:37:03.361Z,72.63
2019-04-28T21:39:33.657Z,72.66
2019-04-28T21:42:05.445Z,72.42
2019-04-28T21:44:53.519Z,72.79
2019-04-28T21:47:29.493Z,72.69
2019-04-28T21:49:59.585Z,73.19
2019-04-28T21:52:29.760Z,73.33
2019-04-28T21:54:59.953Z,72.87
2019-04-28T21:57:30.260Z,73.34
2019-04-28T22:00:00.959Z,73.05
2019-04-28T22:02:30.852Z,73.30
2019-04-28T22:05:01.077Z,73.16
2019-04-28T22:07:31.289Z,72.92
2019-04-28T22:10:01.478Z,72.99
2019-04-28T22:12:31.783Z,73.26
2019-04-28T22:15:01.937Z,73.16
2019-04-28T22:17:32.251Z,73.90
2019-04-28T22:20:02.409Z,73.59
2019-04-28T22:22:32.579Z,73.99
2019-04-28T22:25:09.324Z,73.88
2019-04-28T22:27:42.371Z,73.53
2019-04-28T22:30:12.782Z,73.67
2019-04-28T22:32:42.927Z,73.83
2019-04-28T22:35:13.295Z,73.81
2019-04-28T22:37:44.387Z,73.75
2019-04-28T22:40:14.542Z,73.71
2019-04-28T22:42:44.755Z,74.09
2019-04-28T22:45:15.725Z,73.92
2019-04-28T22:47:46.351Z,74.60
2019-04-28T22:50:44.600Z,74.54
2019-04-28T22:53:16.427Z,74.40
2019-04-28T22:56:02.745Z,73.97
2019-04-28T22:58:51.849Z,73.98
2019-04-28T23:01:31.123Z,74.25
2019-04-28T23:04:04.780Z,74.43
2019-04-28T23:06:35.967Z,74.85
2019-04-28T23:09:07.540Z,75.18
2019-04-28T23:11:39.413Z,76.00
2019-04-28T23:14:09.601Z,75.74
2019-04-28T23:16:39.817Z,75.11
2019-04-28T23:19:13.215Z,74.88
2019-04-28T23:21:58.159Z,75.14
2019-04-28T23:24:28.301Z,75.22
2019-04-28T23:26:58.441Z,75.19
2019-04-28T23:29:30.622Z,74.73
2019-04-28T23:32:00.455Z,75.07
2019-04-28T23:34:30.605Z,74.73
2019-04-28T23:37:00.794Z,74.68
2019-04-28T23:39:30.986Z,75.54
2019-04-28T23:42:06.210Z,75.41
2019-04-28T23:44:36.326Z,75.27
2019-04-28T23:47:07.636Z,76.14
2019-04-28T23:49:37.769Z,76.87
2019-04-28T23:52:21.997Z,76.58
2019-04-28T23:54:53.190Z,76.91
2019-04-28T23:57:23.374Z,78.00
2019-04-28T23:59:53.526Z,77.55
